sensor_id;sensor_type;location;lat;lon;timestamp;P1;durP1;ratioP1;P2;durP2;ratioP2
45326;SDS011;31062;49.678;24.560;2023-07-09T00:00:43;4.20;;;3.13;;
45326;SDS011;31062;49.678;24.560;2023-07-09T00:03:32;3.90;;;3.58;;
45326;SDS011;31062;49.678;24.560;2023-07-09T00:06:17;4.03;;;3.63;;
45326;SDS011;31062;49.678;24.560;2023-07-09T00:09:14;4.85;;;3.75;;
45326;SDS011;31062;49.678;24.560;2023-07-09T00:12:02;8.07;;;4.15;;
45326;SDS011;31062;49.678;24.560;2023-07-09T00:14:47;3.35;;;3.05;;
45326;SDS011;31062;49.678;24.560;2023-07-09T00:17:34;6.22;;;3.63;;
45326;SDS011;31062;49.678;24.560;2023-07-09T00:20:19;11.23;;;3.70;;
45326;SDS011;31062;49.678;24.560;2023-07-09T00:23:05;5.88;;;3.85;;
45326;SDS011;31062;49.678;24.560;2023-07-09T00:25:50;4.32;;;3.13;;
45326;SDS011;31062;49.678;24.560;2023-07-09T00:28:36;3.97;;;2.85;;
45326;SDS011;31062;49.678;24.560;2023-07-09T00:31:21;7.07;;;3.30;;
45326;SDS011;31062;49.678;24.560;2023-07-09T00:34:09;4.43;;;3.38;;
45326;SDS011;31062;49.678;24.560;2023-07-09T00:36:57;6.97;;;3.15;;
45326;SDS011;31062;49.678;24.560;2023-07-09T00:39:43;3.67;;;3.00;;
45326;SDS011;31062;49.678;24.560;2023-07-09T00:42:29;6.32;;;3.00;;
45326;SDS011;31062;49.678;24.560;2023-07-09T00:45:22;4.50;;;3.08;;
45326;SDS011;31062;49.678;24.560;2023-07-09T00:48:14;4.97;;;3.08;;
45326;SDS011;31062;49.678;24.560;2023-07-09T00:51:04;4.50;;;3.45;;
45326;SDS011;31062;49.678;24.560;2023-07-09T00:54:03;5.43;;;3.30;;
45326;SDS011;31062;49.678;24.560;2023-07-09T00:57:02;3.75;;;2.50;;
45326;SDS011;31062;49.678;24.560;2023-07-09T01:00:03;3.50;;;2.90;;
45326;SDS011;31062;49.678;24.560;2023-07-09T01:02:55;5.45;;;2.88;;
45326;SDS011;31062;49.678;24.560;2023-07-09T01:05:40;4.93;;;2.50;;
45326;SDS011;31062;49.678;24.560;2023-07-09T01:08:26;4.75;;;2.60;;
45326;SDS011;31062;49.678;24.560;2023-07-09T01:11:17;6.03;;;2.80;;
45326;SDS011;31062;49.678;24.560;2023-07-09T01:14:07;2.72;;;2.53;;
45326;SDS011;31062;49.678;24.560;2023-07-09T01:16:57;3.58;;;2.50;;
45326;SDS011;31062;49.678;24.560;2023-07-09T01:19:49;2.73;;;2.17;;
45326;SDS011;31062;49.678;24.560;2023-07-09T01:22:36;3.28;;;2.53;;
45326;SDS011;31062;49.678;24.560;2023-07-09T01:25:23;2.28;;;2.10;;
45326;SDS011;31062;49.678;24.560;2023-07-09T01:28:09;4.28;;;2.72;;
45326;SDS011;31062;49.678;24.560;2023-07-09T01:30:54;6.07;;;2.53;;
45326;SDS011;31062;49.678;24.560;2023-07-09T01:33:41;3.55;;;3.03;;
45326;SDS011;31062;49.678;24.560;2023-07-09T01:36:29;2.63;;;2.42;;
45326;SDS011;31062;49.678;24.560;2023-07-09T01:39:16;3.40;;;2.50;;
45326;SDS011;31062;49.678;24.560;2023-07-09T01:42:02;6.25;;;2.53;;
45326;SDS011;31062;49.678;24.560;2023-07-09T01:44:51;2.90;;;2.53;;
45326;SDS011;31062;49.678;24.560;2023-07-09T01:47:38;5.65;;;2.28;;
45326;SDS011;31062;49.678;24.560;2023-07-09T01:50:25;2.72;;;2.33;;
45326;SDS011;31062;49.678;24.560;2023-07-09T01:53:14;8.23;;;3.20;;
45326;SDS011;31062;49.678;24.560;2023-07-09T01:56:02;3.05;;;2.17;;
45326;SDS011;31062;49.678;24.560;2023-07-09T01:58:49;2.95;;;2.30;;
45326;SDS011;31062;49.678;24.560;2023-07-09T02:01:34;2.97;;;2.50;;
45326;SDS011;31062;49.678;24.560;2023-07-09T02:04:23;2.20;;;2.03;;
45326;SDS011;31062;49.678;24.560;2023-07-09T02:07:12;6.18;;;2.60;;
45326;SDS011;31062;49.678;24.560;2023-07-09T02:09:58;5.45;;;2.80;;
45326;SDS011;31062;49.678;24.560;2023-07-09T02:12:44;6.10;;;3.15;;
45326;SDS011;31062;49.678;24.560;2023-07-09T02:15:30;3.17;;;2.60;;
45326;SDS011;31062;49.678;24.560;2023-07-09T02:18:16;2.20;;;2.00;;
45326;SDS011;31062;49.678;24.560;2023-07-09T02:21:01;2.95;;;2.30;;
45326;SDS011;31062;49.678;24.560;2023-07-09T02:23:46;3.70;;;2.47;;
45326;SDS011;31062;49.678;24.560;2023-07-09T02:26:32;3.70;;;2.33;;
45326;SDS011;31062;49.678;24.560;2023-07-09T02:29:17;3.42;;;2.85;;
45326;SDS011;31062;49.678;24.560;2023-07-09T02:32:03;6.55;;;2.30;;
45326;SDS011;31062;49.678;24.560;2023-07-09T02:34:49;6.10;;;2.47;;
45326;SDS011;31062;49.678;24.560;2023-07-09T02:37:37;4.53;;;2.10;;
45326;SDS011;31062;49.678;24.560;2023-07-09T02:40:23;8.13;;;2.40;;
45326;SDS011;31062;49.678;24.560;2023-07-09T02:43:08;5.13;;;2.15;;
45326;SDS011;31062;49.678;24.560;2023-07-09T02:45:54;6.45;;;2.95;;
45326;SDS011;31062;49.678;24.560;2023-07-09T02:48:39;2.35;;;2.15;;
45326;SDS011;31062;49.678;24.560;2023-07-09T02:51:24;7.78;;;2.60;;
45326;SDS011;31062;49.678;24.560;2023-07-09T02:54:13;2.97;;;2.63;;
45326;SDS011;31062;49.678;24.560;2023-07-09T02:56:59;2.30;;;2.15;;
45326;SDS011;31062;49.678;24.560;2023-07-09T02:59:45;4.85;;;2.20;;
45326;SDS011;31062;49.678;24.560;2023-07-09T03:02:30;2.33;;;2.10;;
45326;SDS011;31062;49.678;24.560;2023-07-09T03:05:16;3.55;;;2.33;;
45326;SDS011;31062;49.678;24.560;2023-07-09T03:08:01;9.02;;;2.40;;
45326;SDS011;31062;49.678;24.560;2023-07-09T03:10:46;3.85;;;2.63;;
45326;SDS011;31062;49.678;24.560;2023-07-09T03:13:32;4.30;;;2.60;;
45326;SDS011;31062;49.678;24.560;2023-07-09T03:16:17;5.38;;;2.13;;
45326;SDS011;31062;49.678;24.560;2023-07-09T03:19:04;2.58;;;2.38;;
45326;SDS011;31062;49.678;24.560;2023-07-09T03:21:50;3.38;;;2.55;;
45326;SDS011;31062;49.678;24.560;2023-07-09T03:24:35;2.47;;;2.28;;
45326;SDS011;31062;49.678;24.560;2023-07-09T03:27:21;3.25;;;2.55;;
45326;SDS011;31062;49.678;24.560;2023-07-09T03:30:06;3.20;;;2.45;;
45326;SDS011;31062;49.678;24.560;2023-07-09T03:32:52;3.60;;;2.40;;
45326;SDS011;31062;49.678;24.560;2023-07-09T03:35:37;4.00;;;2.38;;
45326;SDS011;31062;49.678;24.560;2023-07-09T03:38:23;3.75;;;2.63;;
45326;SDS011;31062;49.678;24.560;2023-07-09T03:41:09;4.20;;;2.92;;
45326;SDS011;31062;49.678;24.560;2023-07-09T03:43:54;5.50;;;2.88;;
45326;SDS011;31062;49.678;24.560;2023-07-09T03:46:41;5.35;;;3.00;;
45326;SDS011;31062;49.678;24.560;2023-07-09T03:49:27;3.10;;;2.80;;
45326;SDS011;31062;49.678;24.560;2023-07-09T03:52:12;10.50;;;3.38;;
45326;SDS011;31062;49.678;24.560;2023-07-09T03:54:57;5.28;;;2.60;;
45326;SDS011;31062;49.678;24.560;2023-07-09T03:57:45;3.70;;;2.67;;
45326;SDS011;31062;49.678;24.560;2023-07-09T04:00:30;5.97;;;3.17;;
45326;SDS011;31062;49.678;24.560;2023-07-09T04:03:17;6.82;;;3.20;;
45326;SDS011;31062;49.678;24.560;2023-07-09T04:06:02;3.90;;;3.10;;
45326;SDS011;31062;49.678;24.560;2023-07-09T04:08:48;4.22;;;2.75;;
45326;SDS011;31062;49.678;24.560;2023-07-09T04:11:33;4.55;;;3.03;;
45326;SDS011;31062;49.678;24.560;2023-07-09T04:14:19;13.55;;;3.53;;
45326;SDS011;31062;49.678;24.560;2023-07-09T04:17:04;8.18;;;3.70;;
45326;SDS011;31062;49.678;24.560;2023-07-09T04:19:50;5.25;;;3.55;;
45326;SDS011;31062;49.678;24.560;2023-07-09T04:22:36;6.00;;;3.75;;
45326;SDS011;31062;49.678;24.560;2023-07-09T04:25:22;5.43;;;3.58;;
45326;SDS011;31062;49.678;24.560;2023-07-09T04:28:08;4.15;;;3.58;;
45326;SDS011;31062;49.678;24.560;2023-07-09T04:30:53;5.75;;;3.67;;
45326;SDS011;31062;49.678;24.560;2023-07-09T04:33:39;4.57;;;3.47;;
45326;SDS011;31062;49.678;24.560;2023-07-09T04:36:24;7.70;;;3.83;;
45326;SDS011;31062;49.678;24.560;2023-07-09T04:39:11;4.18;;;3.78;;
45326;SDS011;31062;49.678;24.560;2023-07-09T04:41:56;9.02;;;4.05;;
45326;SDS011;31062;49.678;24.560;2023-07-09T04:44:42;5.82;;;3.88;;
45326;SDS011;31062;49.678;24.560;2023-07-09T04:47:29;5.60;;;3.83;;
45326;SDS011;31062;49.678;24.560;2023-07-09T04:50:15;3.70;;;3.30;;
45326;SDS011;31062;49.678;24.560;2023-07-09T04:53:00;3.95;;;3.08;;
45326;SDS011;31062;49.678;24.560;2023-07-09T04:55:46;4.80;;;3.63;;
45326;SDS011;31062;49.678;24.560;2023-07-09T04:58:31;10.68;;;3.50;;
45326;SDS011;31062;49.678;24.560;2023-07-09T05:01:16;3.90;;;2.90;;
45326;SDS011;31062;49.678;24.560;2023-07-09T05:04:01;5.20;;;2.80;;
45326;SDS011;31062;49.678;24.560;2023-07-09T05:06:47;4.03;;;3.13;;
45326;SDS011;31062;49.678;24.560;2023-07-09T05:09:33;6.35;;;3.10;;
45326;SDS011;31062;49.678;24.560;2023-07-09T05:12:18;7.10;;;3.22;;
45326;SDS011;31062;49.678;24.560;2023-07-09T05:15:05;3.58;;;3.03;;
45326;SDS011;31062;49.678;24.560;2023-07-09T05:17:51;5.63;;;3.33;;
45326;SDS011;31062;49.678;24.560;2023-07-09T05:20:37;4.43;;;3.13;;
45326;SDS011;31062;49.678;24.560;2023-07-09T05:23:26;4.55;;;3.17;;
45326;SDS011;31062;49.678;24.560;2023-07-09T05:26:11;3.28;;;2.97;;
45326;SDS011;31062;49.678;24.560;2023-07-09T05:28:57;3.22;;;2.83;;
45326;SDS011;31062;49.678;24.560;2023-07-09T05:31:43;3.25;;;2.88;;
45326;SDS011;31062;49.678;24.560;2023-07-09T05:34:28;3.15;;;2.80;;
45326;SDS011;31062;49.678;24.560;2023-07-09T05:37:13;5.18;;;2.42;;
45326;SDS011;31062;49.678;24.560;2023-07-09T05:39:59;4.57;;;3.20;;
45326;SDS011;31062;49.678;24.560;2023-07-09T05:42:44;3.80;;;2.50;;
45326;SDS011;31062;49.678;24.560;2023-07-09T05:45:31;5.18;;;3.00;;
45326;SDS011;31062;49.678;24.560;2023-07-09T05:48:16;9.20;;;2.50;;
45326;SDS011;31062;49.678;24.560;2023-07-09T05:51:01;5.38;;;3.35;;
45326;SDS011;31062;49.678;24.560;2023-07-09T05:53:47;3.83;;;3.38;;
45326;SDS011;31062;49.678;24.560;2023-07-09T05:56:32;3.45;;;2.90;;
45326;SDS011;31062;49.678;24.560;2023-07-09T05:59:18;3.28;;;2.75;;
45326;SDS011;31062;49.678;24.560;2023-07-09T06:02:03;3.90;;;2.83;;
45326;SDS011;31062;49.678;24.560;2023-07-09T06:04:49;3.88;;;2.72;;
45326;SDS011;31062;49.678;24.560;2023-07-09T06:07:35;4.60;;;3.08;;
45326;SDS011;31062;49.678;24.560;2023-07-09T06:10:20;5.72;;;3.00;;
45326;SDS011;31062;49.678;24.560;2023-07-09T06:13:08;5.78;;;3.20;;
45326;SDS011;31062;49.678;24.560;2023-07-09T06:15:54;3.20;;;2.90;;
45326;SDS011;31062;49.678;24.560;2023-07-09T06:18:39;6.10;;;2.80;;
45326;SDS011;31062;49.678;24.560;2023-07-09T06:21:25;4.43;;;3.15;;
45326;SDS011;31062;49.678;24.560;2023-07-09T06:24:10;5.30;;;2.90;;
45326;SDS011;31062;49.678;24.560;2023-07-09T06:26:57;5.22;;;3.17;;
45326;SDS011;31062;49.678;24.560;2023-07-09T06:29:44;3.10;;;2.80;;
45326;SDS011;31062;49.678;24.560;2023-07-09T06:32:29;3.42;;;2.65;;
45326;SDS011;31062;49.678;24.560;2023-07-09T06:35:15;4.90;;;2.53;;
45326;SDS011;31062;49.678;24.560;2023-07-09T06:38:00;3.00;;;2.50;;
45326;SDS011;31062;49.678;24.560;2023-07-09T06:40:46;6.00;;;2.60;;
45326;SDS011;31062;49.678;24.560;2023-07-09T06:43:31;6.55;;;2.60;;
45326;SDS011;31062;49.678;24.560;2023-07-09T06:46:18;3.72;;;2.20;;
45326;SDS011;31062;49.678;24.560;2023-07-09T06:49:04;2.65;;;2.38;;
45326;SDS011;31062;49.678;24.560;2023-07-09T06:51:53;4.07;;;2.60;;
45326;SDS011;31062;49.678;24.560;2023-07-09T06:54:38;5.85;;;2.55;;
45326;SDS011;31062;49.678;24.560;2023-07-09T06:57:23;3.35;;;2.85;;
45326;SDS011;31062;49.678;24.560;2023-07-09T07:00:09;3.90;;;2.70;;
45326;SDS011;31062;49.678;24.560;2023-07-09T07:02:55;5.53;;;2.30;;
45326;SDS011;31062;49.678;24.560;2023-07-09T07:05:44;3.25;;;2.67;;
45326;SDS011;31062;49.678;24.560;2023-07-09T07:08:31;6.13;;;1.92;;
45326;SDS011;31062;49.678;24.560;2023-07-09T07:11:17;2.83;;;2.60;;
45326;SDS011;31062;49.678;24.560;2023-07-09T07:14:03;3.17;;;2.60;;
45326;SDS011;31062;49.678;24.560;2023-07-09T07:16:48;4.88;;;2.67;;
45326;SDS011;31062;49.678;24.560;2023-07-09T07:19:34;5.72;;;2.50;;
45326;SDS011;31062;49.678;24.560;2023-07-09T07:22:19;4.82;;;3.08;;
45326;SDS011;31062;49.678;24.560;2023-07-09T07:25:05;3.83;;;2.60;;
45326;SDS011;31062;49.678;24.560;2023-07-09T07:27:52;3.67;;;2.72;;
45326;SDS011;31062;49.678;24.560;2023-07-09T07:30:39;2.92;;;2.58;;
45326;SDS011;31062;49.678;24.560;2023-07-09T07:33:24;3.58;;;2.70;;
45326;SDS011;31062;49.678;24.560;2023-07-09T07:36:10;3.03;;;2.53;;
45326;SDS011;31062;49.678;24.560;2023-07-09T07:39:14;2.40;;;2.20;;
45326;SDS011;31062;49.678;24.560;2023-07-09T07:42:00;4.60;;;2.50;;
45326;SDS011;31062;49.678;24.560;2023-07-09T07:44:45;4.15;;;2.53;;
45326;SDS011;31062;49.678;24.560;2023-07-09T07:47:31;4.72;;;2.38;;
45326;SDS011;31062;49.678;24.560;2023-07-09T07:50:18;2.92;;;2.22;;
45326;SDS011;31062;49.678;24.560;2023-07-09T07:53:03;4.15;;;2.15;;
45326;SDS011;31062;49.678;24.560;2023-07-09T07:55:49;3.13;;;2.60;;
45326;SDS011;31062;49.678;24.560;2023-07-09T07:58:34;4.80;;;2.17;;
45326;SDS011;31062;49.678;24.560;2023-07-09T08:01:20;8.50;;;2.50;;
45326;SDS011;31062;49.678;24.560;2023-07-09T08:04:06;3.70;;;2.33;;
45326;SDS011;31062;49.678;24.560;2023-07-09T08:06:52;2.20;;;2.10;;
45326;SDS011;31062;49.678;24.560;2023-07-09T08:09:38;4.28;;;2.40;;
45326;SDS011;31062;49.678;24.560;2023-07-09T08:12:24;6.35;;;2.40;;
45326;SDS011;31062;49.678;24.560;2023-07-09T08:15:13;3.17;;;2.85;;
45326;SDS011;31062;49.678;24.560;2023-07-09T08:18:13;5.57;;;2.50;;
45326;SDS011;31062;49.678;24.560;2023-07-09T08:20:59;3.75;;;2.42;;
45326;SDS011;31062;49.678;24.560;2023-07-09T08:23:45;3.28;;;2.90;;
45326;SDS011;31062;49.678;24.560;2023-07-09T08:26:31;3.03;;;2.60;;
45326;SDS011;31062;49.678;24.560;2023-07-09T08:29:18;3.03;;;2.67;;
45326;SDS011;31062;49.678;24.560;2023-07-09T08:32:05;3.22;;;2.47;;
45326;SDS011;31062;49.678;24.560;2023-07-09T08:34:51;5.03;;;2.92;;
45326;SDS011;31062;49.678;24.560;2023-07-09T08:37:56;3.20;;;2.80;;
45326;SDS011;31062;49.678;24.560;2023-07-09T08:40:47;3.60;;;2.47;;
45326;SDS011;31062;49.678;24.560;2023-07-09T08:49:30;4.45;;;2.67;;
45326;SDS011;31062;49.678;24.560;2023-07-09T08:52:38;4.50;;;2.83;;
45326;SDS011;31062;49.678;24.560;2023-07-09T08:55:28;5.47;;;2.80;;
45326;SDS011;31062;49.678;24.560;2023-07-09T08:58:28;6.00;;;2.65;;
45326;SDS011;31062;49.678;24.560;2023-07-09T09:01:36;8.40;;;2.75;;
45326;SDS011;31062;49.678;24.560;2023-07-09T09:04:29;3.55;;;2.60;;
45326;SDS011;31062;49.678;24.560;2023-07-09T09:07:23;4.15;;;2.60;;
45326;SDS011;31062;49.678;24.560;2023-07-09T09:10:26;6.68;;;3.03;;
45326;SDS011;31062;49.678;24.560;2023-07-09T09:13:19;3.33;;;2.90;;
45326;SDS011;31062;49.678;24.560;2023-07-09T09:16:21;5.57;;;2.80;;
45326;SDS011;31062;49.678;24.560;2023-07-09T09:19:16;6.22;;;2.67;;
45326;SDS011;31062;49.678;24.560;2023-07-09T09:22:09;4.13;;;2.92;;
45326;SDS011;31062;49.678;24.560;2023-07-09T09:25:10;4.43;;;2.90;;
45326;SDS011;31062;49.678;24.560;2023-07-09T09:27:56;3.65;;;2.95;;
45326;SDS011;31062;49.678;24.560;2023-07-09T09:30:42;5.63;;;2.90;;
45326;SDS011;31062;49.678;24.560;2023-07-09T09:33:35;4.97;;;3.42;;
45326;SDS011;31062;49.678;24.560;2023-07-09T09:36:24;4.13;;;2.55;;
45326;SDS011;31062;49.678;24.560;2023-07-09T09:39:10;3.00;;;2.67;;
45326;SDS011;31062;49.678;24.560;2023-07-09T09:41:59;3.17;;;2.10;;
45326;SDS011;31062;49.678;24.560;2023-07-09T09:44:45;3.35;;;2.38;;
45326;SDS011;31062;49.678;24.560;2023-07-09T09:47:31;3.53;;;3.03;;
45326;SDS011;31062;49.678;24.560;2023-07-09T09:50:18;2.95;;;2.33;;
45326;SDS011;31062;49.678;24.560;2023-07-09T09:53:08;3.38;;;2.25;;
45326;SDS011;31062;49.678;24.560;2023-07-09T09:55:55;4.32;;;2.88;;
45326;SDS011;31062;49.678;24.560;2023-07-09T09:58:42;3.10;;;2.85;;
45326;SDS011;31062;49.678;24.560;2023-07-09T10:01:32;4.75;;;2.67;;
45326;SDS011;31062;49.678;24.560;2023-07-09T10:04:23;3.78;;;2.50;;
45326;SDS011;31062;49.678;24.560;2023-07-09T10:07:11;3.70;;;3.03;;
45326;SDS011;31062;49.678;24.560;2023-07-09T10:10:09;3.45;;;2.80;;
45326;SDS011;31062;49.678;24.560;2023-07-09T10:13:07;3.67;;;2.92;;
45326;SDS011;31062;49.678;24.560;2023-07-09T10:19:25;6.18;;;3.17;;
45326;SDS011;31062;49.678;24.560;2023-07-09T10:31:19;3.08;;;2.78;;
45326;SDS011;31062;49.678;24.560;2023-07-09T10:39:59;3.85;;;2.70;;
45326;SDS011;31062;49.678;24.560;2023-07-09T10:42:48;4.05;;;2.92;;
45326;SDS011;31062;49.678;24.560;2023-07-09T10:45:42;3.53;;;2.97;;
45326;SDS011;31062;49.678;24.560;2023-07-09T10:48:40;6.97;;;2.63;;
45326;SDS011;31062;49.678;24.560;2023-07-09T10:51:29;3.78;;;2.40;;
45326;SDS011;31062;49.678;24.560;2023-07-09T10:57:39;3.15;;;2.85;;
45326;SDS011;31062;49.678;24.560;2023-07-09T11:00:38;4.40;;;2.22;;
45326;SDS011;31062;49.678;24.560;2023-07-09T11:04:20;3.03;;;2.15;;
45326;SDS011;31062;49.678;24.560;2023-07-09T11:06:39;2.83;;;2.45;;
45326;SDS011;31062;49.678;24.560;2023-07-09T11:09:31;7.03;;;2.67;;
45326;SDS011;31062;49.678;24.560;2023-07-09T11:12:22;4.45;;;2.45;;
45326;SDS011;31062;49.678;24.560;2023-07-09T11:15:17;3.03;;;2.53;;
45326;SDS011;31062;49.678;24.560;2023-07-09T11:18:06;3.22;;;2.33;;
45326;SDS011;31062;49.678;24.560;2023-07-09T11:21:06;3.13;;;2.10;;
45326;SDS011;31062;49.678;24.560;2023-07-09T11:23:54;4.53;;;2.40;;
45326;SDS011;31062;49.678;24.560;2023-07-09T11:26:46;7.72;;;2.20;;
45326;SDS011;31062;49.678;24.560;2023-07-09T11:29:34;2.70;;;2.50;;
45326;SDS011;31062;49.678;24.560;2023-07-09T11:32:31;4.53;;;2.53;;
45326;SDS011;31062;49.678;24.560;2023-07-09T11:35:19;2.60;;;2.30;;
45326;SDS011;31062;49.678;24.560;2023-07-09T11:38:07;2.47;;;2.22;;
45326;SDS011;31062;49.678;24.560;2023-07-09T11:41:01;3.60;;;2.40;;
45326;SDS011;31062;49.678;24.560;2023-07-09T11:43:47;2.22;;;2.05;;
45326;SDS011;31062;49.678;24.560;2023-07-09T11:46:35;5.68;;;2.70;;
45326;SDS011;31062;49.678;24.560;2023-07-09T11:49:27;4.75;;;2.38;;
45326;SDS011;31062;49.678;24.560;2023-07-09T11:52:52;6.47;;;3.38;;
45326;SDS011;31062;49.678;24.560;2023-07-09T11:55:40;4.10;;;2.17;;
45326;SDS011;31062;49.678;24.560;2023-07-09T11:58:28;4.82;;;2.38;;
45326;SDS011;31062;49.678;24.560;2023-07-09T12:01:15;2.70;;;2.13;;
45326;SDS011;31062;49.678;24.560;2023-07-09T12:04:03;3.17;;;2.13;;
45326;SDS011;31062;49.678;24.560;2023-07-09T12:06:50;2.58;;;2.35;;
45326;SDS011;31062;49.678;24.560;2023-07-09T12:09:46;6.68;;;2.30;;
45326;SDS011;31062;49.678;24.560;2023-07-09T12:12:35;3.38;;;2.83;;
45326;SDS011;31062;49.678;24.560;2023-07-09T12:15:22;2.45;;;2.25;;
45326;SDS011;31062;49.678;24.560;2023-07-09T12:18:12;2.97;;;2.20;;
45326;SDS011;31062;49.678;24.560;2023-07-09T12:20:58;3.08;;;2.22;;
45326;SDS011;31062;49.678;24.560;2023-07-09T12:23:44;10.55;;;2.60;;
45326;SDS011;31062;49.678;24.560;2023-07-09T12:26:30;5.30;;;2.72;;
45326;SDS011;31062;49.678;24.560;2023-07-09T12:29:16;2.50;;;2.13;;
45326;SDS011;31062;49.678;24.560;2023-07-09T12:32:12;5.13;;;2.40;;
45326;SDS011;31062;49.678;24.560;2023-07-09T12:35:00;4.55;;;2.20;;
45326;SDS011;31062;49.678;24.560;2023-07-09T12:37:46;4.63;;;2.42;;
45326;SDS011;31062;49.678;24.560;2023-07-09T12:40:34;7.30;;;2.60;;
45326;SDS011;31062;49.678;24.560;2023-07-09T12:43:26;8.05;;;2.42;;
45326;SDS011;31062;49.678;24.560;2023-07-09T12:46:14;2.47;;;2.13;;
45326;SDS011;31062;49.678;24.560;2023-07-09T12:49:00;3.33;;;2.50;;
45326;SDS011;31062;49.678;24.560;2023-07-09T12:51:46;3.80;;;2.42;;
45326;SDS011;31062;49.678;24.560;2023-07-09T12:54:31;2.25;;;2.15;;
45326;SDS011;31062;49.678;24.560;2023-07-09T12:57:18;2.35;;;2.15;;
45326;SDS011;31062;49.678;24.560;2023-07-09T13:00:05;4.78;;;2.28;;
45326;SDS011;31062;49.678;24.560;2023-07-09T13:03:00;3.42;;;2.38;;
45326;SDS011;31062;49.678;24.560;2023-07-09T13:06:05;2.50;;;2.30;;
45326;SDS011;31062;49.678;24.560;2023-07-09T13:09:27;3.00;;;2.25;;
45326;SDS011;31062;49.678;24.560;2023-07-09T13:12:13;4.20;;;2.85;;
45326;SDS011;31062;49.678;24.560;2023-07-09T13:14:58;2.63;;;2.33;;
45326;SDS011;31062;49.678;24.560;2023-07-09T13:17:45;4.35;;;2.38;;
45326;SDS011;31062;49.678;24.560;2023-07-09T13:20:31;3.67;;;2.20;;
45326;SDS011;31062;49.678;24.560;2023-07-09T13:23:24;6.25;;;2.65;;
45326;SDS011;31062;49.678;24.560;2023-07-09T13:28:56;2.45;;;2.25;;
45326;SDS011;31062;49.678;24.560;2023-07-09T13:31:43;5.40;;;1.80;;
45326;SDS011;31062;49.678;24.560;2023-07-09T13:34:32;4.50;;;2.30;;
45326;SDS011;31062;49.678;24.560;2023-07-09T13:37:19;2.65;;;2.17;;
45326;SDS011;31062;49.678;24.560;2023-07-09T13:40:04;3.55;;;2.45;;
45326;SDS011;31062;49.678;24.560;2023-07-09T13:42:50;2.72;;;2.53;;
45326;SDS011;31062;49.678;24.560;2023-07-09T13:45:36;2.38;;;2.17;;
45326;SDS011;31062;49.678;24.560;2023-07-09T13:48:25;4.85;;;2.53;;
45326;SDS011;31062;49.678;24.560;2023-07-09T13:51:22;4.63;;;2.85;;
45326;SDS011;31062;49.678;24.560;2023-07-09T13:54:17;5.95;;;2.20;;
45326;SDS011;31062;49.678;24.560;2023-07-09T13:57:05;2.92;;;2.10;;
45326;SDS011;31062;49.678;24.560;2023-07-09T13:59:52;8.57;;;2.22;;
45326;SDS011;31062;49.678;24.560;2023-07-09T14:02:38;6.35;;;2.22;;
45326;SDS011;31062;49.678;24.560;2023-07-09T14:05:25;3.33;;;2.40;;
45326;SDS011;31062;49.678;24.560;2023-07-09T14:08:11;5.88;;;2.55;;
45326;SDS011;31062;49.678;24.560;2023-07-09T14:11:00;9.20;;;2.70;;
45326;SDS011;31062;49.678;24.560;2023-07-09T14:13:47;8.45;;;2.50;;
45326;SDS011;31062;49.678;24.560;2023-07-09T14:16:33;4.05;;;2.42;;
45326;SDS011;31062;49.678;24.560;2023-07-09T14:19:20;9.13;;;2.55;;
45326;SDS011;31062;49.678;24.560;2023-07-09T14:22:18;4.18;;;2.10;;
45326;SDS011;31062;49.678;24.560;2023-07-09T14:25:15;3.95;;;2.53;;
45326;SDS011;31062;49.678;24.560;2023-07-09T14:28:04;3.67;;;2.58;;
45326;SDS011;31062;49.678;24.560;2023-07-09T14:30:54;3.38;;;2.45;;
45326;SDS011;31062;49.678;24.560;2023-07-09T14:33:44;4.93;;;2.20;;
45326;SDS011;31062;49.678;24.560;2023-07-09T14:36:29;3.47;;;3.28;;
45326;SDS011;31062;49.678;24.560;2023-07-09T14:39:15;3.95;;;2.30;;
45326;SDS011;31062;49.678;24.560;2023-07-09T14:42:00;6.05;;;2.17;;
45326;SDS011;31062;49.678;24.560;2023-07-09T14:44:47;2.22;;;2.08;;
45326;SDS011;31062;49.678;24.560;2023-07-09T14:47:32;3.42;;;2.28;;
45326;SDS011;31062;49.678;24.560;2023-07-09T14:50:18;7.15;;;2.60;;
45326;SDS011;31062;49.678;24.560;2023-07-09T14:53:05;3.70;;;2.28;;
45326;SDS011;31062;49.678;24.560;2023-07-09T14:56:13;4.45;;;2.15;;
45326;SDS011;31062;49.678;24.560;2023-07-09T14:58:59;3.45;;;2.20;;
45326;SDS011;31062;49.678;24.560;2023-07-09T15:01:44;2.42;;;2.22;;
45326;SDS011;31062;49.678;24.560;2023-07-09T15:04:31;3.25;;;2.40;;
45326;SDS011;31062;49.678;24.560;2023-07-09T15:07:18;4.15;;;2.38;;
45326;SDS011;31062;49.678;24.560;2023-07-09T15:10:04;3.17;;;2.05;;
45326;SDS011;31062;49.678;24.560;2023-07-09T15:12:54;2.65;;;2.10;;
45326;SDS011;31062;49.678;24.560;2023-07-09T15:15:40;6.97;;;3.13;;
45326;SDS011;31062;49.678;24.560;2023-07-09T15:18:26;5.30;;;2.35;;
45326;SDS011;31062;49.678;24.560;2023-07-09T15:21:11;2.53;;;2.33;;
45326;SDS011;31062;49.678;24.560;2023-07-09T15:23:58;11.00;;;2.67;;
45326;SDS011;31062;49.678;24.560;2023-07-09T15:26:44;2.47;;;2.28;;
45326;SDS011;31062;49.678;24.560;2023-07-09T15:29:34;2.60;;;2.40;;
45326;SDS011;31062;49.678;24.560;2023-07-09T15:32:19;4.35;;;2.67;;
45326;SDS011;31062;49.678;24.560;2023-07-09T15:35:04;2.30;;;2.10;;
45326;SDS011;31062;49.678;24.560;2023-07-09T15:37:50;3.30;;;2.10;;
45326;SDS011;31062;49.678;24.560;2023-07-09T15:40:36;3.90;;;2.15;;
45326;SDS011;31062;49.678;24.560;2023-07-09T15:43:21;2.58;;;1.98;;
45326;SDS011;31062;49.678;24.560;2023-07-09T15:46:08;2.60;;;2.20;;
45326;SDS011;31062;49.678;24.560;2023-07-09T15:49:00;5.55;;;2.35;;
45326;SDS011;31062;49.678;24.560;2023-07-09T15:51:46;4.32;;;2.00;;
45326;SDS011;31062;49.678;24.560;2023-07-09T15:54:32;3.20;;;2.70;;
45326;SDS011;31062;49.678;24.560;2023-07-09T15:57:18;8.18;;;2.30;;
45326;SDS011;31062;49.678;24.560;2023-07-09T16:00:18;5.20;;;2.08;;
45326;SDS011;31062;49.678;24.560;2023-07-09T16:03:08;2.55;;;2.35;;
45326;SDS011;31062;49.678;24.560;2023-07-09T16:06:06;7.60;;;2.20;;
45326;SDS011;31062;49.678;24.560;2023-07-09T16:08:52;3.17;;;2.25;;
45326;SDS011;31062;49.678;24.560;2023-07-09T16:11:37;11.48;;;2.70;;
45326;SDS011;31062;49.678;24.560;2023-07-09T16:14:28;3.33;;;2.20;;
45326;SDS011;31062;49.678;24.560;2023-07-09T16:17:17;3.85;;;2.10;;
45326;SDS011;31062;49.678;24.560;2023-07-09T16:20:03;2.90;;;2.20;;
45326;SDS011;31062;49.678;24.560;2023-07-09T16:22:50;7.15;;;2.53;;
45326;SDS011;31062;49.678;24.560;2023-07-09T16:25:36;4.57;;;2.40;;
45326;SDS011;31062;49.678;24.560;2023-07-09T16:28:21;2.85;;;2.35;;
45326;SDS011;31062;49.678;24.560;2023-07-09T16:31:07;2.45;;;2.25;;
45326;SDS011;31062;49.678;24.560;2023-07-09T16:33:52;3.05;;;2.33;;
45326;SDS011;31062;49.678;24.560;2023-07-09T16:36:38;3.35;;;2.20;;
45326;SDS011;31062;49.678;24.560;2023-07-09T16:42:29;5.30;;;2.30;;
45326;SDS011;31062;49.678;24.560;2023-07-09T16:45:16;5.57;;;2.55;;
45326;SDS011;31062;49.678;24.560;2023-07-09T16:48:09;5.65;;;2.40;;
45326;SDS011;31062;49.678;24.560;2023-07-09T16:51:01;6.40;;;2.47;;
45326;SDS011;31062;49.678;24.560;2023-07-09T16:53:47;12.48;;;2.85;;
45326;SDS011;31062;49.678;24.560;2023-07-09T16:56:33;7.30;;;2.47;;
45326;SDS011;31062;49.678;24.560;2023-07-09T16:59:19;8.82;;;2.45;;
45326;SDS011;31062;49.678;24.560;2023-07-09T17:02:24;8.40;;;2.72;;
45326;SDS011;31062;49.678;24.560;2023-07-09T17:05:13;3.65;;;2.45;;
45326;SDS011;31062;49.678;24.560;2023-07-09T17:07:59;3.95;;;2.20;;
45326;SDS011;31062;49.678;24.560;2023-07-09T17:10:45;7.05;;;3.92;;